sensor_id;sensor_type;location;lat;lon;timestamp;pressure;altitude;pressure_sealevel;temperature;humidity
58739;BME280;44512;53.046;18.604;2023-03-01T00:04:31;103091.89;;;1.47;55.58
58739;BME280;44512;53.046;18.604;2023-03-01T00:14:59;103089.13;;;1.48;55.36
58739;BME280;44512;53.046;18.604;2023-03-01T00:25:27;103063.23;;;1.35;55.50
58739;BME280;44512;53.046;18.604;2023-03-01T00:35:58;103063.54;;;1.28;55.58
58739;BME280;44512;53.046;18.604;2023-03-01T00:46:26;103064.23;;;1.32;55.40
58739;BME280;44512;53.046;18.604;2023-03-01T00:56:53;103052.19;;;1.25;55.43
58739;BME280;44512;53.046;18.604;2023-03-01T01:07:22;103040.28;;;1.15;55.61
58739;BME280;44512;53.046;18.604;2023-03-01T01:17:50;103029.06;;;1.08;55.85
58739;BME280;44512;53.046;18.604;2023-03-01T01:28:18;103009.96;;;1.00;56.11
58739;BME280;44512;53.046;18.604;2023-03-01T01:38:47;102997.02;;;0.92;56.37
58739;BME280;44512;53.046;18.604;2023-03-01T01:49:23;102996.88;;;0.95;56.50
58739;BME280;44512;53.046;18.604;2023-03-01T01:59:49;102979.31;;;0.91;56.53
58739;BME280;44512;53.046;18.604;2023-03-01T02:10:13;102992.31;;;0.97;56.35
58739;BME280;44512;53.046;18.604;2023-03-01T02:31:11;102972.79;;;0.97;55.97
58739;BME280;44512;53.046;18.604;2023-03-01T02:41:39;102960.03;;;0.86;56.26
58739;BME280;44512;53.046;18.604;2023-03-01T03:02:36;102960.70;;;0.74;56.53
58739;BME280;44512;53.046;18.604;2023-03-01T03:13:06;102961.89;;;0.68;56.64
58739;BME280;44512;53.046;18.604;2023-03-01T03:23:32;102937.20;;;0.65;56.74
58739;BME280;44512;53.046;18.604;2023-03-01T03:34:00;102917.16;;;0.58;56.94
58739;BME280;44512;53.046;18.604;2023-03-01T03:44:29;102907.85;;;0.49;57.10
58739;BME280;44512;53.046;18.604;2023-03-01T03:54:57;102924.68;;;0.49;57.38
58739;BME280;44512;53.046;18.604;2023-03-01T04:05:27;102940.43;;;0.54;57.53
58739;BME280;44512;53.046;18.604;2023-03-01T04:15:54;102938.30;;;0.61;57.47
58739;BME280;44512;53.046;18.604;2023-03-01T04:26:23;102922.30;;;0.61;57.39
58739;BME280;44512;53.046;18.604;2023-03-01T04:36:51;102915.75;;;0.50;57.60
58739;BME280;44512;53.046;18.604;2023-03-01T04:47:20;102890.77;;;0.36;57.76
58739;BME280;44512;53.046;18.604;2023-03-01T04:57:48;102886.81;;;0.27;57.87
58739;BME280;44512;53.046;18.604;2023-03-01T05:08:17;102896.66;;;0.25;57.91
58739;BME280;44512;53.046;18.604;2023-03-01T05:18:45;102901.55;;;0.17;58.11
58739;BME280;44512;53.046;18.604;2023-03-01T05:29:14;102899.98;;;0.13;58.43
58739;BME280;44512;53.046;18.604;2023-03-01T05:39:42;102911.34;;;0.16;58.65
58739;BME280;44512;53.046;18.604;2023-03-01T05:50:13;102892.28;;;0.24;58.65
58739;BME280;44512;53.046;18.604;2023-03-01T06:00:40;102890.41;;;0.26;58.69
58739;BME280;44512;53.046;18.604;2023-03-01T06:11:08;102896.27;;;0.33;58.80
58739;BME280;44512;53.046;18.604;2023-03-01T06:21:36;102896.98;;;0.36;58.94
58739;BME280;44512;53.046;18.604;2023-03-01T06:32:05;102909.18;;;0.40;59.17
58739;BME280;44512;53.046;18.604;2023-03-01T06:42:35;102916.93;;;0.45;59.38
58739;BME280;44512;53.046;18.604;2023-03-01T06:53:02;102913.07;;;0.50;59.48
58739;BME280;44512;53.046;18.604;2023-03-01T07:03:30;102901.80;;;0.45;59.72
58739;BME280;44512;53.046;18.604;2023-03-01T07:13:59;102900.37;;;0.56;59.77
58739;BME280;44512;53.046;18.604;2023-03-01T07:24:27;102889.37;;;0.62;59.76
58739;BME280;44512;53.046;18.604;2023-03-01T07:34:56;102885.37;;;0.70;59.85
58739;BME280;44512;53.046;18.604;2023-03-01T07:45:25;102883.81;;;0.82;59.79
58739;BME280;44512;53.046;18.604;2023-03-01T07:56:05;102875.06;;;0.96;59.84
58739;BME280;44512;53.046;18.604;2023-03-01T08:06:21;102881.27;;;1.12;60.00
58739;BME280;44512;53.046;18.604;2023-03-01T08:16:49;102874.04;;;1.30;60.15
58739;BME280;44512;53.046;18.604;2023-03-01T08:27:18;102888.02;;;1.49;60.42
58739;BME280;44512;53.046;18.604;2023-03-01T08:37:46;102889.63;;;1.68;60.97
58739;BME280;44512;53.046;18.604;2023-03-01T08:48:15;102885.09;;;1.84;61.77
58739;BME280;44512;53.046;18.604;2023-03-01T08:58:47;102869.70;;;2.03;62.28
58739;BME280;44512;53.046;18.604;2023-03-01T09:09:16;102883.47;;;2.26;62.75
58739;BME280;44512;53.046;18.604;2023-03-01T09:19:40;102889.30;;;2.47;63.28
58739;BME280;44512;53.046;18.604;2023-03-01T09:35:09;102865.80;;;2.80;64.01
58739;BME280;44512;53.046;18.604;2023-03-01T09:45:41;102849.91;;;3.06;64.22
58739;BME280;44512;53.046;18.604;2023-03-01T09:56:12;102849.54;;;3.25;64.12
58739;BME280;44512;53.046;18.604;2023-03-01T10:06:34;102839.34;;;3.44;64.06
58739;BME280;44512;53.046;18.604;2023-03-01T10:17:23;102826.98;;;3.69;64.17
58739;BME280;44512;53.046;18.604;2023-03-01T10:27:39;102802.37;;;3.89;63.83
58739;BME280;44512;53.046;18.604;2023-03-01T10:38:06;102789.49;;;4.07;63.51
58739;BME280;44512;53.046;18.604;2023-03-01T10:48:28;102779.84;;;4.30;63.15
58739;BME280;44512;53.046;18.604;2023-03-01T10:59:02;102772.81;;;4.53;62.13
58739;BME280;44512;53.046;18.604;2023-03-01T11:09:25;102770.85;;;4.67;61.43
58739;BME280;44512;53.046;18.604;2023-03-01T11:20:13;102754.82;;;4.79;61.17
58739;BME280;44512;53.046;18.604;2023-03-01T11:30:29;102746.36;;;4.96;60.92
58739;BME280;44512;53.046;18.604;2023-03-01T11:40:55;102739.97;;;5.10;60.50
58739;BME280;44512;53.046;18.604;2023-03-01T11:51:25;102751.16;;;5.28;59.64
58739;BME280;44512;53.046;18.604;2023-03-01T12:12:28;102752.95;;;5.62;59.21
58739;BME280;44512;53.046;18.604;2023-03-01T12:43:56;102731.55;;;5.96;59.02
58739;BME280;44512;53.046;18.604;2023-03-01T12:54:16;102707.35;;;6.07;58.77
58739;BME280;44512;53.046;18.604;2023-03-01T13:25:34;102714.63;;;6.50;59.08
58739;BME280;44512;53.046;18.604;2023-03-01T13:36:03;102697.84;;;6.69;59.00
58739;BME280;44512;53.046;18.604;2023-03-01T13:46:32;102693.03;;;6.84;58.55
58739;BME280;44512;53.046;18.604;2023-03-01T13:57:00;102692.45;;;7.01;58.36
58739;BME280;44512;53.046;18.604;2023-03-01T14:07:28;102675.99;;;7.15;58.31
58739;BME280;44512;53.046;18.604;2023-03-01T14:18:02;102671.98;;;7.30;58.26
58739;BME280;44512;53.046;18.604;2023-03-01T14:28:27;102664.99;;;7.49;58.01
58739;BME280;44512;53.046;18.604;2023-03-01T14:38:53;102658.01;;;7.67;57.79
58739;BME280;44512;53.046;18.604;2023-03-01T14:49:27;102658.38;;;7.83;57.43
58739;BME280;44512;53.046;18.604;2023-03-01T14:59:55;102650.63;;;8.00;56.99
58739;BME280;44512;53.046;18.604;2023-03-01T15:10:25;102645.03;;;8.22;56.19
58739;BME280;44512;53.046;18.604;2023-03-01T15:20:48;102629.84;;;8.31;55.77
58739;BME280;44512;53.046;18.604;2023-03-01T15:31:23;102632.62;;;8.50;55.27
58739;BME280;44512;53.046;18.604;2023-03-01T15:41:48;102631.62;;;8.61;54.99
58739;BME280;44512;53.046;18.604;2023-03-01T15:52:24;102634.33;;;8.71;54.65
58739;BME280;44512;53.046;18.604;2023-03-01T16:02:41;102633.48;;;8.70;54.31
58739;BME280;44512;53.046;18.604;2023-03-01T16:13:08;102620.81;;;8.61;53.85
58739;BME280;44512;53.046;18.604;2023-03-01T16:23:36;102617.13;;;8.43;53.51
58739;BME280;44512;53.046;18.604;2023-03-01T16:34:05;102610.79;;;8.13;53.63
58739;BME280;44512;53.046;18.604;2023-03-01T16:44:33;102614.69;;;7.90;53.71
58739;BME280;44512;53.046;18.604;2023-03-01T16:55:04;102616.88;;;7.65;53.83
58739;BME280;44512;53.046;18.604;2023-03-01T17:05:30;102617.32;;;7.40;53.85
58739;BME280;44512;53.046;18.604;2023-03-01T17:15:59;102625.07;;;7.12;54.00
58739;BME280;44512;53.046;18.604;2023-03-01T17:26:28;102632.57;;;6.88;54.04
58739;BME280;44512;53.046;18.604;2023-03-01T17:36:55;102634.62;;;6.63;54.12
58739;BME280;44512;53.046;18.604;2023-03-01T17:47:24;102637.50;;;6.39;54.83
58739;BME280;44512;53.046;18.604;2023-03-01T17:57:52;102643.55;;;6.20;54.72
58739;BME280;44512;53.046;18.604;2023-03-01T18:08:21;102661.51;;;6.09;54.60
58739;BME280;44512;53.046;18.604;2023-03-01T18:18:54;102644.05;;;5.92;54.60
58739;BME280;44512;53.046;18.604;2023-03-01T18:29:18;102651.00;;;5.72;54.59
58739;BME280;44512;53.046;18.604;2023-03-01T18:39:53;102649.15;;;5.50;54.74
58739;BME280;44512;53.046;18.604;2023-03-01T18:50:16;102648.39;;;5.37;55.13
58739;BME280;44512;53.046;18.604;2023-03-01T19:00:43;102635.57;;;5.29;55.11
58739;BME280;44512;53.046;18.604;2023-03-01T19:11:13;102650.46;;;5.22;55.56
58739;BME280;44512;53.046;18.604;2023-03-01T19:21:40;102664.83;;;5.21;56.48
58739;BME280;44512;53.046;18.604;2023-03-01T19:32:09;102675.56;;;5.21;57.08
58739;BME280;44512;53.046;18.604;2023-03-01T19:42:37;102681.80;;;5.21;57.49
58739;BME280;44512;53.046;18.604;2023-03-01T19:53:06;102683.53;;;5.22;57.89
58739;BME280;44512;53.046;18.604;2023-03-01T20:03:34;102687.29;;;5.20;58.37
58739;BME280;44512;53.046;18.604;2023-03-01T20:14:03;102688.39;;;5.17;58.67
58739;BME280;44512;53.046;18.604;2023-03-01T20:24:31;102670.30;;;5.08;59.06
58739;BME280;44512;53.046;18.604;2023-03-01T20:35:00;102683.69;;;4.97;58.95
58739;BME280;44512;53.046;18.604;2023-03-01T20:45:28;102679.73;;;4.90;58.53
58739;BME280;44512;53.046;18.604;2023-03-01T20:56:04;102684.33;;;4.77;57.83
58739;BME280;44512;53.046;18.604;2023-03-01T21:06:25;102688.82;;;4.52;57.85
58739;BME280;44512;53.046;18.604;2023-03-01T21:16:54;102688.00;;;4.39;58.29
58739;BME280;44512;53.046;18.604;2023-03-01T21:27:22;102685.56;;;4.36;58.84
58739;BME280;44512;53.046;18.604;2023-03-01T21:37:50;102685.03;;;4.31;59.01
58739;BME280;44512;53.046;18.604;2023-03-01T21:48:19;102689.88;;;4.26;58.97
58739;BME280;44512;53.046;18.604;2023-03-01T21:58:48;102691.73;;;4.12;58.69
58739;BME280;44512;53.046;18.604;2023-03-01T22:09:18;102692.08;;;3.95;58.81
58739;BME280;44512;53.046;18.604;2023-03-01T22:19:44;102699.79;;;3.87;59.17
58739;BME280;44512;53.046;18.604;2023-03-01T22:30:14;102679.97;;;3.77;58.93
58739;BME280;44512;53.046;18.604;2023-03-01T22:40:41;102684.72;;;3.73;58.68
58739;BME280;44512;53.046;18.604;2023-03-01T22:51:18;102682.35;;;3.69;59.15
58739;BME280;44512;53.046;18.604;2023-03-01T23:01:40;102689.41;;;3.70;60.29
58739;BME280;44512;53.046;18.604;2023-03-01T23:12:07;102690.80;;;3.75;61.42
58739;BME280;44512;53.046;18.604;2023-03-01T23:22:36;102696.50;;;3.83;62.39
58739;BME280;44512;53.046;18.604;2023-03-01T23:33:04;102703.97;;;3.91;63.27
58739;BME280;44512;53.046;18.604;2023-03-01T23:43:32;102705.27;;;3.98;63.98
58739;BME280;44512;53.046;18.604;2023-03-01T23:54:01;102694.73;;;4.08;64.60
